AIRPORT INFORMATION 25-04-2018 04:20 KNMI / JUMPRUN.NL

FTEHAM AMSTERDAM/SCHIPHOL NLD -3 m.
242300 ... TAF EHAM 242303Z 2500/2606 23021G32KT 7000 -RADZ BKN012
    TEMPO 2500/2504 3500 DZRA RA BKN007
    BECMG 2503/2506 29016KT 9999 NSW
    PROB30 2504/2507 BKN007
    BECMG 2506/2509 SCT020
    BECMG 2514/2517 25014KT
    PROB40 TEMPO 2516/2602 6000 SHRA SCT020CB=

FTEHBK MAASTRICHT/MAASTRICHT- AACHEN
NLD 114 m.
242300 ... TAF EHBK 242304Z 2500/2606 20010KT 9999 SCT030
    BECMG 2502/2505 25012G22KT
    PROB40 TEMPO 2505/2510 7000 -RA - SHRA BKN012 FEW018CB
    PROB30 TEMPO 2510/2518 26015G25KT 6000 SHRA SCT020CB
    BKN025
    BECM G 2517/2520 24011KT
    PROB30 TEMPO 2600/2606 6000 SHRA BKN012 SCT030CB=

FTEHEH EINDHOVEN/EINDHOVEN NLD 22 m.
242300 ... TAF EHEH 242347Z 2500/2606 25010KT 9999 SCT030 BKN050
    BECMG 2500/2502 26012G22KT SCT015 BKN020
    BECMG 2502/2504 FEW007 SCT012 BKN015
    TEMPO 2502/2506 3500 RADZ SCT005 BKN008 OVC012
    PROB40 TEMPO 2504/2510 3000 SHRA BKN005 BKN020CB
    BECMG 2507/2509 BKN025
    TEMPO 2514/2602 4000 SHRA SCT025CB BKN030
    PROB30 TEMPO 2520/2524 3000 SHRAGS TSRAGS FEW012 BKN020CB=

FTEHGG GRONINGEN/EELDE NLD 5 m.
242300 ... TAF EHGG 242304Z 2500/2606 24017G27KT 9999 BKN018
    TEMPO 2500/2505 4000 RADZ BKN007
    BECMG 2504/2507 27012G22KT
    PROB30 2505/2510 BKN007
    TEMPO 2512/2518 6000 SHRA SCT020CB BKN025
    BECMG 2517/2520 22005KT
    PROB30 TEMPO 2518/2602 6000 SHRA BKN012 SCT030CB
    PROB30 2602/2606 5000 BR BKN010=

FTEHRD ROTTERDAM/THE HAGUE AIRPORT NLD -5 m.
242300 ... TAF EHRD 242303Z 2500/2606 23021G32KT 7000 -RADZ BKN012
    TEMPO 2500/2504 3500 DZRA RA BKN007
    BECMG 2503/2506 29016KT 9999 NSW
    PROB30 2504/2507 BKN007
    BECMG 2506/2509 SCT020
    BECMG 2514/2517 25014KT
    PROB40 TEMPO 2516/2602 6000 SHRA SCT020CB=

ENDOUTPUT
AIRPORT INFORMATION 25-04-2018 04:20 KNMI / JUMPRUN.NL

FCEHDL ARNHEM/DEELEN NLD 48 m.
250100 ... TAF EHDL 250100Z NIL=
FCEHGR GILZE-RIJEN/GILZE-RIJEN NLD 14 m.
250100 ... TAF EHGR 250100Z NIL=
FCEHKD DE KOOY/DE KOOY NLD 1 m.
250200 ... TAF EHKD 250040Z 2501/2513 23020G30KT 8000 FEW010 SCT012
    BKN015
    TEMPO 2501/2507 3500 DZRA SCT005 BKN008
    BECMG 2503/2506 26014G24KT
    BECMG 2507/2510 SCT020 BKN025=

FCEHLW LEEUWARDEN/LEEUWARDEN NLD 1 m.
250100 ... TAF EHLW 250100Z NIL=
FCEHVK VOLKEL/VOLKEL NLD 21 m.
250100 ... TAF EHVK 250100Z NIL=
FCEHWO WOENSDRECHT/WOENSDRECHT NLD 19 m.
250100 ... TAF EHWO 250100Z NIL=
ENDOUTPUT